Time;durP1;ratioP1;P1;durP2;ratioP2;P2;SDS_P1;SDS_P2;PMS_P1;PMS_P2;Temp;Humidity;BMP_temperature;BMP_pressure;BME280_temperature;BME280_humidity;BME280_pressure;Samples;Min_cycle;Max_cycle;Signal;HPM_P1;HPM_P2
2023/01/12 00:02:18;;;;;;;20.55;14.65;;;9.90;77.60;;;;;;6305708;22;19995;-81
2023/01/12 00:04:43;;;;;;;20.35;12.88;;;9.90;78.00;;;;;;6306379;22;20618;-82
2023/01/12 00:07:11;;;;;;;23.00;14.07;;;10.00;78.00;;;;;;6306883;22;20002;-82
2023/01/12 00:09:37;;;;;;;17.25;12.27;;;;;;;;;;6306166;22;20414;-81
2023/01/12 00:12:05;;;;;;;22.90;13.38;;;10.30;77.30;;;;;;6304857;22;20014;-81
2023/01/12 00:14:35;;;;;;;15.98;11.48;;;10.20;77.60;;;;;;6306669;22;20430;-81
2023/01/12 00:17:01;;;;;;;18.27;12.00;;;;;;;;;;6305928;22;19999;-81
2023/01/12 00:19:27;;;;;;;17.95;11.77;;;10.30;76.70;;;;;;6305019;22;20011;-81
2023/01/12 00:22:00;;;;;;;18.05;11.73;;;10.40;77.40;;;;;;6308117;22;20291;-81
2023/01/12 00:24:27;;;;;;;15.95;11.00;;;10.50;78.00;;;;;;6308471;22;20003;-81
2023/01/12 00:26:54;;;;;;;17.88;12.18;;;10.50;78.10;;;;;;6306789;22;20058;-81
2023/01/12 00:29:21;;;;;;;18.30;12.00;;;10.50;79.40;;;;;;6308843;22;20006;-81
2023/01/12 00:31:46;;;;;;;16.15;11.27;;;10.20;80.30;;;;;;6308688;22;19999;-81
2023/01/12 00:34:12;;;;;;;18.75;13.35;;;10.10;81.10;;;;;;6305422;22;20061;-81
2023/01/12 00:36:38;;;;;;;17.98;12.75;;;10.10;81.90;;;;;;6302961;22;20007;-81
2023/01/12 00:39:04;;;;;;;16.38;10.57;;;9.80;83.40;;;;;;6306859;22;20052;-81
2023/01/12 00:46:58;;;;;;;14.10;10.00;;;9.80;85.50;;;;;;6307640;22;20015;-81
2023/01/12 00:49:23;;;;;;;13.57;9.43;;;9.90;84.90;;;;;;6307627;22;19999;-80
2023/01/12 00:51:49;;;;;;;15.07;9.10;;;;;;;;;;6308132;22;19996;-80
2023/01/12 00:54:15;;;;;;;15.15;10.50;;;10.00;85.30;;;;;;6308145;22;20007;-79
2023/01/12 00:56:41;;;;;;;17.85;11.20;;;9.80;86.70;;;;;;6308852;22;20003;-80
2023/01/12 00:59:07;;;;;;;13.30;9.30;;;;;;;;;;6307595;22;20035;-80
2023/01/12 01:01:33;;;;;;;13.77;9.10;;;9.70;87.60;;;;;;6308651;22;20066;-81
2023/01/12 01:03:59;;;;;;;11.77;8.45;;;;;;;;;;6308145;22;20064;-81
2023/01/12 01:06:25;;;;;;;12.38;8.98;;;9.70;86.80;;;;;;6308469;22;20025;-81
2023/01/12 01:08:51;;;;;;;12.43;8.23;;;9.80;87.60;;;;;;6308240;22;19995;-81
2023/01/12 01:11:17;;;;;;;11.48;8.63;;;;;;;;;;6308234;22;20433;-80
2023/01/12 01:13:43;;;;;;;12.50;8.38;;;;;;;;;;6307510;22;20451;-81
2023/01/12 01:16:12;;;;;;;13.63;8.43;;;10.10;87.30;;;;;;6306486;22;20418;-82
2023/01/12 01:18:38;;;;;;;11.27;8.13;;;10.10;87.90;;;;;;6307461;22;20317;-81
2023/01/12 01:21:04;;;;;;;16.70;10.57;;;10.10;88.30;;;;;;6307584;22;20003;-81
2023/01/12 01:23:34;;;;;;;13.20;9.00;;;10.00;89.20;;;;;;6307844;22;20045;-82
2023/01/12 01:26:11;;;;;;;13.02;9.20;;;9.80;89.20;;;;;;6307826;22;19995;-82
2023/01/12 01:28:37;;;;;;;12.80;9.75;;;;;;;;;;6307923;22;19995;-82
2023/01/12 01:31:12;;;;;;;11.45;8.85;;;9.80;89.20;;;;;;6307524;22;19996;-82
2023/01/12 01:33:38;;;;;;;13.85;9.50;;;9.80;89.20;;;;;;6307591;22;20118;-83
2023/01/12 01:36:04;;;;;;;11.20;8.68;;;9.90;89.40;;;;;;6307565;22;20025;-83
2023/01/12 01:38:30;;;;;;;11.45;8.93;;;9.70;89.60;;;;;;6307617;22;20003;-83
2023/01/12 01:40:56;;;;;;;13.15;8.85;;;9.70;90.00;;;;;;6307599;22;20006;-83
2023/01/12 01:43:24;;;;;;;13.35;7.85;;;9.40;90.40;;;;;;6307706;22;20452;-82
2023/01/12 01:46:08;;;;;;;9.13;6.82;;;9.40;90.40;;;;;;6307300;22;20299;-81
2023/01/12 01:48:37;;;;;;;8.52;5.75;;;9.50;90.10;;;;;;6306447;22;20006;-81
2023/01/12 01:51:07;;;;;;;9.48;6.63;;;9.50;90.10;;;;;;6307381;22;20038;-81
2023/01/12 01:53:36;;;;;;;7.18;5.25;;;9.50;90.00;;;;;;6306796;22;20506;-81
2023/01/12 01:56:10;;;;;;;6.28;4.50;;;9.40;90.00;;;;;;6307718;22;20029;-81
2023/01/12 01:58:43;;;;;;;4.95;4.03;;;9.30;90.20;;;;;;6306794;22;20006;-81
2023/01/12 02:01:10;;;;;;;6.05;3.92;;;9.30;90.30;;;;;;6305984;22;20014;-81
2023/01/12 02:03:37;;;;;;;5.60;3.60;;;9.40;90.00;;;;;;6307399;22;20015;-81
2023/01/12 02:06:04;;;;;;;4.18;3.30;;;9.50;89.60;;;;;;6307936;22;20080;-80
2023/01/12 02:08:39;;;;;;;5.75;3.53;;;9.60;90.00;;;;;;6307829;22;20015;-80
2023/01/12 02:16:19;;;;;;;5.10;3.42;;;9.70;89.60;;;;;;6307607;22;19995;-82
2023/01/12 02:16:43;;;;;;;4.05;2.75;;;9.80;89.50;;;;;;6307320;22;20017;-82
2023/01/12 02:19:42;;;;;;;4.53;3.42;;;9.80;89.90;;;;;;6306881;22;20073;-81
2023/01/12 02:22:32;;;;;;;5.90;3.55;;;9.90;89.60;;;;;;6307530;22;20007;-82
2023/01/12 02:25:16;;;;;;;4.97;3.33;;;9.90;89.20;;;;;;6305338;22;20074;-82
2023/01/12 02:28:12;;;;;;;5.07;3.50;;;9.80;89.80;;;;;;6305734;22;20372;-82
2023/01/12 02:30:57;;;;;;;3.83;3.00;;;9.80;89.00;;;;;;6306613;22;20066;-84
2023/01/12 02:33:43;;;;;;;6.80;3.80;;;9.90;89.50;;;;;;6307532;22;20434;-83
2023/01/12 02:36:29;;;;;;;4.30;3.00;;;9.90;89.50;;;;;;6307306;22;20003;-83
2023/01/12 02:39:10;;;;;;;5.07;3.47;;;9.90;89.40;;;;;;6308038;22;20401;-84
2023/01/12 02:44:47;;;;;;;5.38;3.55;;;9.90;89.20;;;;;;6306224;22;20027;-83
2023/01/12 02:47:22;;;;;;;6.75;4.07;;;9.90;89.30;;;;;;6307347;22;20003;-84
2023/01/12 02:49:52;;;;;;;5.80;3.88;;;9.60;89.90;;;;;;6306693;22;20002;-83
2023/01/12 02:52:23;;;;;;;5.55;3.83;;;9.50;90.20;;;;;;6307453;22;20022;-84
2023/01/12 02:54:49;;;;;;;5.68;4.40;;;;;;;;;;6306954;22;20083;-83
2023/01/12 02:57:15;;;;;;;6.07;4.47;;;9.30;90.40;;;;;;6306513;22;20007;-84
2023/01/12 02:59:45;;;;;;;5.15;3.85;;;9.30;90.50;;;;;;6306489;22;20311;-84
2023/01/12 03:02:18;;;;;;;6.63;3.90;;;9.30;90.50;;;;;;6306988;22;20068;-83
2023/01/12 03:04:43;;;;;;;5.32;3.50;;;9.30;90.50;;;;;;6307091;22;20374;-83
2023/01/12 03:07:24;;;;;;;7.22;3.90;;;9.40;90.50;;;;;;6306952;22;20042;-83
2023/01/12 03:09:56;;;;;;;5.28;4.05;;;9.50;90.50;;;;;;6307123;22;20022;-83
2023/01/12 03:12:32;;;;;;;7.25;4.95;;;9.60;90.50;;;;;;6306926;22;20314;-83
2023/01/12 03:15:02;;;;;;;6.35;4.65;;;9.60;90.30;;;;;;6306579;22;20010;-83
2023/01/12 03:17:32;;;;;;;5.67;4.60;;;9.60;90.30;;;;;;6279415;22;20011;-83
2023/01/12 03:20:09;;;;;;;5.47;4.50;;;9.60;90.10;;;;;;6306858;22;20003;-83
2023/01/12 03:22:36;;;;;;;6.03;4.32;;;9.60;90.10;;;;;;6278641;22;20007;-82
2023/01/12 03:25:09;;;;;;;5.43;4.45;;;9.60;90.40;;;;;;6306834;22;20206;-83
2023/01/12 03:27:47;;;;;;;8.68;5.53;;;9.70;90.40;;;;;;6279097;22;20622;-83
2023/01/12 03:30:20;;;;;;;7.50;5.10;;;9.70;90.50;;;;;;6306563;22;20003;-84
2023/01/12 03:32:46;;;;;;;8.02;5.28;;;9.70;90.40;;;;;;6306371;22;20007;-84
2023/01/12 03:35:12;;;;;;;5.78;4.57;;;9.70;90.40;;;;;;6307269;22;20006;-83
2023/01/12 03:37:54;;;;;;;8.20;5.05;;;9.70;90.30;;;;;;6307001;22;19996;-83
2023/01/12 03:40:35;;;;;;;7.30;4.85;;;9.50;90.10;;;;;;6307028;22;20317;-83
2023/01/12 03:43:19;;;;;;;7.38;4.82;;;9.50;90.40;;;;;;6307104;22;20038;-83
2023/01/12 03:45:51;;;;;;;6.18;4.97;;;9.50;90.20;;;;;;6306960;22;19999;-82
2023/01/12 03:48:37;;;;;;;6.57;4.75;;;9.60;90.30;;;;;;6306248;22;20010;-82
2023/01/12 03:51:16;;;;;;;6.07;4.65;;;9.60;90.40;;;;;;6306973;22;20022;-83
2023/01/12 03:53:44;;;;;;;8.90;5.47;;;9.70;90.50;;;;;;6306938;22;19995;-81
2023/01/12 03:56:12;;;;;;;7.97;5.25;;;9.70;90.20;;;;;;6306824;22;19999;-82
2023/01/12 03:58:39;;;;;;;8.18;5.38;;;9.60;90.50;;;;;;6306647;22;19995;-82
2023/01/12 04:01:05;;;;;;;7.05;5.28;;;9.60;90.50;;;;;;6306775;22;19995;-82
2023/01/12 04:03:30;;;;;;;9.02;6.10;;;9.60;90.50;;;;;;6306068;22;20075;-82
2023/01/12 04:05:56;;;;;;;7.63;5.20;;;9.50;90.40;;;;;;6307225;22;19995;-82
2023/01/12 04:08:23;;;;;;;8.15;5.90;;;9.40;90.50;;;;;;6307079;22;20066;-83
2023/01/12 04:10:48;;;;;;;9.40;6.30;;;9.40;90.60;;;;;;6306277;22;19996;-82
2023/01/12 04:13:14;;;;;;;12.85;7.43;;;;;;;;;;6306323;22;20010;-82
2023/01/12 04:15:43;;;;;;;9.52;6.25;;;9.20;90.40;;;;;;6305075;22;20398;-82
2023/01/12 04:18:10;;;;;;;10.05;6.75;;;9.10;90.70;;;;;;6305092;22;20003;-82
2023/01/12 04:20:36;;;;;;;8.68;6.05;;;9.10;90.50;;;;;;6306028;22;20319;-81
2023/01/12 04:23:02;;;;;;;8.90;6.55;;;9.10;90.60;;;;;;6307209;22;20049;-83
2023/01/12 04:25:28;;;;;;;10.50;6.57;;;;;;;;;;6305984;22;20349;-82
2023/01/12 04:27:59;;;;;;;8.38;6.05;;;9.20;90.50;;;;;;6306801;22;20360;-83
2023/01/12 04:30:26;;;;;;;9.10;6.32;;;9.20;90.70;;;;;;6306778;22;20022;-84
2023/01/12 04:32:53;;;;;;;9.25;6.38;;;9.10;90.70;;;;;;6306911;22;19999;-83
2023/01/12 04:35:19;;;;;;;12.23;7.13;;;9.00;90.70;;;;;;6304484;22;20014;-83
2023/01/12 04:37:45;;;;;;;10.10;6.07;;;8.90;90.80;;;;;;6306111;22;20386;-83
2023/01/12 04:40:14;;;;;;;9.10;6.25;;;8.90;90.60;;;;;;6305686;22;20004;-83
2023/01/12 04:43:00;;;;;;;10.40;6.65;;;8.90;90.50;;;;;;6306104;22;20449;-83
2023/01/12 04:45:27;;;;;;;11.25;7.03;;;8.90;90.40;;;;;;6305619;22;20421;-82
2023/01/12 04:47:53;;;;;;;10.55;6.90;;;8.80;90.60;;;;;;6304641;22;20042;-82
2023/01/12 04:50:19;;;;;;;9.85;6.40;;;8.70;90.80;;;;;;6303507;22;20007;-82
2023/01/12 04:52:44;;;;;;;9.13;6.68;;;8.60;90.70;;;;;;6304860;22;20007;-82
2023/01/12 04:55:10;;;;;;;13.57;8.38;;;8.70;90.70;;;;;;6306561;22;19999;-83
2023/01/12 04:57:36;;;;;;;9.60;7.03;;;8.60;90.70;;;;;;6306277;22;20390;-84
2023/01/12 05:00:04;;;;;;;7.40;5.85;;;8.70;90.70;;;;;;6306080;22;20360;-84
2023/01/12 05:02:29;;;;;;;11.70;7.38;;;8.60;90.70;;;;;;6304993;22;19999;-83
2023/01/12 05:04:55;;;;;;;10.13;6.43;;;8.60;90.70;;;;;;6305142;22;20053;-81
2023/01/12 05:07:21;;;;;;;8.88;6.18;;;8.60;90.60;;;;;;6307010;22;20013;-81
2023/01/12 05:12:31;;;;;;;10.00;7.20;;;8.80;90.40;;;;;;6308328;22;20011;-82
2023/01/12 05:14:57;;;;;;;10.93;6.65;;;8.80;90.50;;;;;;6307549;22;20306;-82
2023/01/12 05:17:23;;;;;;;7.95;6.13;;;8.90;90.20;;;;;;6307983;22;20335;-82
2023/01/12 05:19:48;;;;;;;9.52;6.72;;;9.00;90.20;;;;;;6307533;22;20027;-82
2023/01/12 05:22:15;;;;;;;9.18;6.28;;;8.90;90.10;;;;;;6307741;22;20432;-81
2023/01/12 05:24:40;;;;;;;12.20;7.00;;;9.00;90.30;;;;;;6279711;22;20114;-82
2023/01/12 05:27:06;;;;;;;10.18;6.63;;;9.00;90.20;;;;;;6281303;22;20433;-83
2023/01/12 05:29:32;;;;;;;9.00;6.20;;;8.90;90.00;;;;;;6307156;22;20006;-81
2023/01/12 05:31:57;;;;;;;9.82;6.65;;;9.00;90.30;;;;;;6306913;22;20295;-82
2023/01/12 05:34:23;;;;;;;10.52;6.57;;;;;;;;;;6306330;22;20031;-81
2023/01/12 05:36:49;;;;;;;10.15;6.40;;;9.00;90.00;;;;;;6307593;22;20082;-83
2023/01/12 05:39:15;;;;;;;9.52;6.38;;;9.00;90.20;;;;;;6307644;22;20027;-83
2023/01/12 05:43:48;;;;;;;8.95;6.20;;;9.00;90.10;;;;;;6306575;22;20062;-82
2023/01/12 05:44:26;;;;;;;10.63;6.47;;;8.90;90.10;;;;;;6306205;22;20095;-83
2023/01/12 05:46:52;;;;;;;9.23;6.40;;;8.90;90.10;;;;;;6307661;22;20071;-83
2023/01/12 05:49:18;;;;;;;8.75;6.63;;;;;;;;;;6306650;22;20004;-82
2023/01/12 05:51:44;;;;;;;8.20;5.90;;;8.80;90.00;;;;;;6308291;22;20006;-84
2023/01/12 05:54:10;;;;;;;12.98;6.78;;;;;;;;;;6307756;22;20003;-85
2023/01/12 05:56:35;;;;;;;11.73;7.35;;;8.80;90.10;;;;;;6308103;22;20003;-86
2023/01/12 05:59:03;;;;;;;10.00;7.47;;;8.70;90.30;;;;;;6308770;22;20048;-85
2023/01/12 06:01:29;;;;;;;11.15;7.32;;;8.60;90.50;;;;;;6307902;22;20000;-85
2023/01/12 06:03:57;;;;;;;11.63;7.70;;;8.40;90.70;;;;;;6307469;22;20413;-85
2023/01/12 06:06:29;;;;;;;10.48;6.85;;;8.30;90.70;;;;;;6308129;22;19999;-83
2023/01/12 06:08:56;;;;;;;11.27;6.80;;;8.30;90.90;;;;;;6308252;22;20360;-85
2023/01/12 06:14:08;;;;;;;15.38;8.07;;;8.10;90.90;;;;;;6307629;22;20054;-84
2023/01/12 06:16:37;;;;;;;9.90;7.03;;;8.00;91.00;;;;;;6307875;22;20013;-83
2023/01/12 06:19:02;;;;;;;12.70;7.25;;;8.10;90.90;;;;;;6280127;22;19999;-83
2023/01/12 06:21:30;;;;;;;11.23;6.40;;;8.10;90.80;;;;;;6307821;22;19999;-82
2023/01/12 06:23:55;;;;;;;9.90;6.35;;;8.20;90.70;;;;;;6308023;22;19999;-82
2023/01/12 06:26:21;;;;;;;10.02;6.57;;;8.30;90.90;;;;;;6307807;22;20002;-80
2023/01/12 06:28:47;;;;;;;9.50;5.88;;;8.40;90.60;;;;;;6307686;22;20000;-79
2023/01/12 06:31:13;;;;;;;8.40;6.20;;;8.40;90.50;;;;;;6307249;22;19995;-79
2023/01/12 06:33:39;;;;;;;9.93;6.25;;;8.50;90.50;;;;;;6307648;22;20010;-81
2023/01/12 06:36:05;;;;;;;8.27;6.30;;;8.60;90.30;;;;;;6307513;22;20057;-81
2023/01/12 06:38:33;;;;;;;10.43;6.00;;;8.60;90.30;;;;;;6307261;22;20034;-81
2023/01/12 06:41:07;;;;;;;9.98;6.28;;;8.60;90.40;;;;;;6306450;22;20003;-81
2023/01/12 06:43:33;;;;;;;8.73;5.65;;;8.70;90.40;;;;;;6302411;22;20015;-81
2023/01/12 06:45:59;;;;;;;8.65;6.55;;;;;;;;;;6306365;22;20082;-81
2023/01/12 06:48:25;;;;;;;8.93;6.25;;;8.70;90.30;;;;;;6307367;22;20007;-81
2023/01/12 06:51:00;;;;;;;9.95;6.60;;;8.70;90.40;;;;;;6306207;22;19999;-81
2023/01/12 06:53:26;;;;;;;8.38;6.40;;;8.60;89.80;;;;;;6307340;22;20003;-81
2023/01/12 06:55:52;;;;;;;9.25;6.05;;;8.60;90.10;;;;;;6306630;22;20007;-81
2023/01/12 06:58:17;;;;;;;10.10;5.60;;;8.50;90.40;;;;;;6307004;22;20027;-81
2023/01/12 07:00:43;;;;;;;8.45;6.00;;;8.60;90.40;;;;;;6306951;22;20366;-81
2023/01/12 07:03:16;;;;;;;8.18;5.50;;;8.60;90.20;;;;;;6307504;22;20003;-81
2023/01/12 07:05:42;;;;;;;8.15;5.90;;;;;;;;;;6307521;22;20092;-83
2023/01/12 07:08:07;;;;;;;9.07;5.97;;;8.70;90.30;;;;;;6307292;22;19999;-78
2023/01/12 07:10:33;;;;;;;10.90;5.90;;;8.70;90.30;;;;;;6307161;22;20429;-80
2023/01/12 07:13:00;;;;;;;8.52;6.07;;;;;;;;;;6306682;22;20006;-79
2023/01/12 07:15:26;;;;;;;10.07;6.13;;;8.60;90.40;;;;;;6306630;22;20061;-79
2023/01/12 07:17:58;;;;;;;9.98;6.07;;;8.70;90.40;;;;;;6305791;22;20011;-78
2023/01/12 07:20:24;;;;;;;8.77;5.65;;;8.70;90.60;;;;;;6307178;22;20007;-79
2023/01/12 07:22:50;;;;;;;10.18;6.50;;;8.70;90.50;;;;;;6307192;22;20003;-78
2023/01/12 07:25:16;;;;;;;9.13;6.50;;;8.80;90.50;;;;;;6307376;22;20299;-78
2023/01/12 07:27:52;;;;;;;9.52;6.65;;;8.80;90.60;;;;;;6306922;22;20003;-80
2023/01/12 07:30:20;;;;;;;10.45;7.15;;;8.90;90.60;;;;;;6307151;22;20003;-82
2023/01/12 07:32:47;;;;;;;10.35;6.53;;;8.80;90.10;;;;;;6307026;22;19995;-81
2023/01/12 07:35:13;;;;;;;10.68;6.45;;;8.80;90.40;;;;;;6305471;22;20015;-82
2023/01/12 07:37:45;;;;;;;10.20;7.20;;;8.70;90.60;;;;;;6305964;22;20070;-81
2023/01/12 07:40:11;;;;;;;11.25;6.90;;;8.70;90.70;;;;;;6306880;22;20002;-81
2023/01/12 07:42:37;;;;;;;9.27;6.80;;;8.70;90.70;;;;;;6306094;22;20015;-81
2023/01/12 07:45:03;;;;;;;12.00;8.32;;;8.70;90.50;;;;;;6307353;22;20011;-80
2023/01/12 07:47:29;;;;;;;9.50;6.95;;;8.70;90.50;;;;;;6307241;22;20529;-81
2023/01/12 07:49:55;;;;;;;13.68;7.78;;;8.60;90.60;;;;;;6307543;22;19996;-81
2023/01/12 07:52:21;;;;;;;9.32;7.13;;;8.60;90.70;;;;;;6307676;22;20031;-82
2023/01/12 07:54:46;;;;;;;11.25;7.40;;;8.60;90.80;;;;;;6306707;22;19999;-82
2023/01/12 07:57:12;;;;;;;13.13;8.07;;;8.50;90.50;;;;;;6306554;22;19999;-81
2023/01/12 07:59:38;;;;;;;13.13;6.53;;;8.50;90.60;;;;;;6307191;22;20398;-81
2023/01/12 08:02:04;;;;;;;10.95;7.25;;;8.60;90.70;;;;;;6306890;22;20007;-81
2023/01/12 08:04:30;;;;;;;12.55;8.55;;;8.60;90.40;;;;;;6306026;22;20053;-82
2023/01/12 08:06:56;;;;;;;10.68;7.45;;;8.40;90.10;;;;;;6307111;22;20422;-82
2023/01/12 08:09:22;;;;;;;17.17;7.82;;;8.40;90.10;;;;;;6307189;22;19996;-82
2023/01/12 08:11:47;;;;;;;11.88;7.28;;;8.50;90.20;;;;;;6307135;22;19999;-81
2023/01/12 08:14:27;;;;;;;10.15;6.10;;;8.50;90.20;;;;;;6307075;22;20482;-81
2023/01/12 08:16:55;;;;;;;9.77;6.53;;;8.60;90.30;;;;;;6279483;22;20015;-91
2023/01/12 08:19:27;;;;;;;8.68;6.00;;;8.60;90.10;;;;;;6307542;22;20025;-92
2023/01/12 08:21:59;;;;;;;8.52;6.13;;;8.70;90.00;;;;;;6307681;22;20030;-92
2023/01/12 08:24:31;;;;;;;9.18;6.68;;;8.70;89.70;;;;;;6307379;22;20003;-92
2023/01/12 08:26:59;;;;;;;10.55;6.55;;;8.70;88.80;;;;;;6307856;22;20045;-92
2023/01/12 08:29:42;;;;;;;7.63;5.68;;;8.60;88.70;;;;;;6307474;22;19995;-92
2023/01/12 08:32:11;;;;;;;9.70;6.10;;;8.60;89.20;;;;;;6307303;22;20353;-91
2023/01/12 08:34:39;;;;;;;10.85;8.00;;;8.70;89.30;;;;;;6307933;22;20045;-92
2023/01/12 08:37:08;;;;;;;12.55;8.40;;;8.70;88.80;;;;;;6306087;22;20012;-92
2023/01/12 08:39:35;;;;;;;9.85;6.97;;;8.70;88.90;;;;;;6307809;22;20033;-91
2023/01/12 08:42:01;;;;;;;10.60;6.47;;;8.80;89.30;;;;;;6308776;22;20008;-92
2023/01/12 08:44:32;;;;;;;10.82;6.55;;;8.90;89.30;;;;;;6309825;22;20014;-91
2023/01/12 08:46:58;;;;;;;12.13;6.93;;;9.00;89.40;;;;;;6309965;22;20367;-92
2023/01/12 08:49:26;;;;;;;12.55;7.43;;;9.00;89.00;;;;;;6308189;22;20481;-92
2023/01/12 08:51:52;;;;;;;10.20;7.30;;;9.00;88.70;;;;;;6310087;22;20003;-92
2023/01/12 08:54:18;;;;;;;12.32;7.20;;;8.90;88.30;;;;;;6309610;22;20004;-91
2023/01/12 08:56:44;;;;;;;10.45;6.82;;;9.10;88.60;;;;;;6309435;22;20477;-92
2023/01/12 08:59:11;;;;;;;11.90;7.80;;;9.00;89.00;;;;;;6309471;22;20030;-93
2023/01/12 09:01:37;;;;;;;9.80;6.93;;;9.20;88.90;;;;;;6309480;22;19999;-92
2023/01/12 09:04:04;;;;;;;9.07;6.32;;;9.30;87.70;;;;;;6309575;22;20014;-92
2023/01/12 09:06:35;;;;;;;10.27;7.53;;;9.40;88.50;;;;;;6309567;22;20022;-92
2023/01/12 09:09:03;;;;;;;8.90;6.13;;;9.50;87.30;;;;;;6309663;22;19999;-92
2023/01/12 09:11:31;;;;;;;10.35;6.53;;;9.60;88.10;;;;;;6309401;22;20006;-92
2023/01/12 09:13:57;;;;;;;11.15;5.93;;;9.90;88.40;;;;;;6309687;22;20052;-92
2023/01/12 09:16:25;;;;;;;12.45;5.93;;;10.00;88.30;;;;;;6309662;22;20321;-92
2023/01/12 09:18:51;;;;;;;7.68;5.53;;;10.10;85.30;;;;;;6309430;22;20022;-91
2023/01/12 09:21:22;;;;;;;8.13;5.82;;;10.20;85.60;;;;;;6309440;22;20425;-92
2023/01/12 09:23:48;;;;;;;8.20;5.15;;;10.20;85.50;;;;;;6307505;22;20014;-91
2023/01/12 09:26:30;;;;;;;10.93;4.38;;;10.40;85.60;;;;;;6309521;22;20034;-92
2023/01/12 09:28:57;;;;;;;7.65;4.20;;;10.30;86.10;;;;;;6309700;22;20003;-92
2023/01/12 09:31:23;;;;;;;4.95;3.88;;;10.50;86.00;;;;;;6309389;22;19995;-92
2023/01/12 09:33:48;;;;;;;9.10;4.82;;;10.60;85.60;;;;;;6309013;22;20004;-92
2023/01/12 09:36:19;;;;;;;5.63;4.43;;;10.70;83.60;;;;;;6308751;22;20007;-92
2023/01/12 09:38:46;;;;;;;4.60;3.65;;;10.90;83.90;;;;;;6307528;22;20007;-92
2023/01/12 09:46:57;;;;;;;4.22;3.35;;;10.90;84.50;;;;;;6309624;22;20057;-92
2023/01/12 09:47:05;;;;;;;4.45;3.55;;;11.20;82.70;;;;;;6277959;22;20069;-92
2023/01/12 09:49:35;;;;;;;6.35;3.95;;;11.10;83.10;;;;;;6278292;22;20004;-93
2023/01/12 09:52:40;;;;;;;4.88;3.97;;;11.20;82.50;;;;;;6278285;22;20426;-92
2023/01/12 09:55:35;;;;;;;5.72;3.30;;;11.30;82.60;;;;;;6230874;22;20015;-91
2023/01/12 09:58:29;;;;;;;4.05;3.28;;;11.30;83.30;;;;;;6243175;22;20015;-93
2023/01/12 10:00:57;;;;;;;4.97;3.53;;;11.30;83.10;;;;;;6269303;22;20003;-92
2023/01/12 10:03:37;;;;;;;5.28;3.47;;;11.30;82.90;;;;;;6250682;22;20303;-92
2023/01/12 10:06:04;;;;;;;7.53;5.05;;;11.40;83.30;;;;;;6250640;22;20061;-89
2023/01/12 10:08:40;;;;;;;70.50;47.08;;;11.40;82.50;;;;;;6277699;22;20007;-92
2023/01/12 10:11:34;;;;;;;20.90;15.15;;;11.40;83.40;;;;;;6278020;22;20680;-92
2023/01/12 10:14:22;;;;;;;11.93;5.97;;;11.40;82.20;;;;;;6278319;22;20330;-93
2023/01/12 10:16:56;;;;;;;7.63;4.43;;;11.40;81.60;;;;;;6278832;22;20370;-92
2023/01/12 10:19:22;;;;;;;6.05;4.00;;;;;;;;;;6276049;22;20014;-93
2023/01/12 10:21:51;;;;;;;6.18;4.00;;;11.50;82.50;;;;;;6275727;22;20022;-93
2023/01/12 10:24:20;;;;;;;5.15;3.65;;;11.50;82.70;;;;;;6274575;22;20492;-82
2023/01/12 10:26:50;;;;;;;10.07;5.32;;;11.70;82.30;;;;;;6276559;22;20487;-82
2023/01/12 10:29:15;;;;;;;4.70;4.00;;;11.70;81.90;;;;;;6276131;22;20031;-82
2023/01/12 10:31:41;;;;;;;5.55;4.20;;;11.70;82.80;;;;;;6275438;22;19996;-83
2023/01/12 10:34:09;;;;;;;6.63;5.13;;;11.70;82.20;;;;;;6276300;22;20472;-83
2023/01/12 10:37:03;;;;;;;5.47;3.83;;;11.70;81.70;;;;;;6276424;22;20445;-82
2023/01/12 10:39:38;;;;;;;6.45;4.38;;;11.70;81.60;;;;;;6275977;22;20011;-82
2023/01/12 10:45:22;;;;;;;7.40;4.32;;;11.90;80.50;;;;;;6281122;22;20026;-91
2023/01/12 10:47:52;;;;;;;5.75;3.95;;;11.90;81.70;;;;;;6308296;22;20003;-89
2023/01/12 10:50:26;;;;;;;7.37;4.20;;;12.10;81.40;;;;;;6307981;22;20007;-91
2023/01/12 10:53:02;;;;;;;8.15;5.05;;;12.10;82.00;;;;;;6308893;22;20003;-82
2023/01/12 10:55:35;;;;;;;8.60;5.13;;;12.30;81.20;;;;;;6306826;22;20064;-82
2023/01/12 10:58:01;;;;;;;11.23;6.30;;;12.40;79.50;;;;;;6306775;22;20014;-82
2023/01/12 11:00:28;;;;;;;8.68;5.55;;;12.40;79.60;;;;;;6307410;22;20003;-82
2023/01/12 11:02:54;;;;;;;9.35;5.18;;;12.60;79.70;;;;;;6306581;22;20034;-82
2023/01/12 11:05:35;;;;;;;7.00;4.50;;;12.60;79.60;;;;;;6306204;22;20003;-82
2023/01/12 11:08:01;;;;;;;12.98;5.88;;;12.70;80.00;;;;;;6307049;22;20078;-82
2023/01/12 11:10:35;;;;;;;7.47;4.00;;;12.60;76.90;;;;;;6306453;22;20049;-82
2023/01/12 11:13:04;;;;;;;5.03;3.47;;;12.60;78.30;;;;;;6278860;22;20007;-82
2023/01/12 11:15:34;;;;;;;6.85;3.75;;;12.80;78.90;;;;;;6306384;22;20421;-83
2023/01/12 11:18:10;;;;;;;;;;;13.20;78.80;;;;;;6307467;22;20069;-82
2023/01/12 11:20:45;;;;;;;8.98;3.72;;;13.40;75.40;;;;;;6306106;22;19905;-82
2023/01/12 11:23:29;;;;;;;6.07;3.75;;;13.60;76.20;;;;;;6305983;22;19999;-82
2023/01/12 11:25:58;;;;;;;6.22;3.70;;;13.80;76.90;;;;;;6306917;22;20005;-83
2023/01/12 11:28:33;;;;;;;5.03;3.67;;;13.90;73.40;;;;;;6306907;22;20445;-82
2023/01/12 11:31:17;;;;;;;7.80;4.10;;;14.00;73.70;;;;;;6306591;22;20086;-83
2023/01/12 11:33:51;;;;;;;6.22;4.25;;;14.20;75.10;;;;;;6307364;22;20008;-83
2023/01/12 11:36:33;;;;;;;5.88;3.80;;;14.10;73.60;;;;;;6280113;22;20053;-82
2023/01/12 11:39:19;;;;;;;5.30;3.90;;;14.20;74.40;;;;;;6307129;22;20013;-82
2023/01/12 11:45:03;;;;;;;4.85;3.72;;;14.90;71.50;;;;;;6303426;22;20022;-82
2023/01/12 11:47:35;;;;;;;5.75;3.63;;;15.10;72.40;;;;;;6306680;22;20318;-82
2023/01/12 11:50:26;;;;;;;5.82;3.75;;;15.50;73.70;;;;;;6306031;22;20060;-82
2023/01/12 11:52:54;;;;;;;4.75;3.67;;;15.80;73.20;;;;;;6306757;22;20000;-82
2023/01/12 11:55:55;;;;;;;5.47;3.83;;;16.20;72.40;;;;;;6305333;22;20010;-82
2023/01/12 11:58:50;;;;;;;5.60;3.63;;;16.40;70.20;;;;;;6306892;22;20006;-82
2023/01/12 12:01:45;;;;;;;5.80;3.70;;;16.30;66.70;;;;;;6307029;22;19999;-82
2023/01/12 12:04:43;;;;;;;5.50;3.47;;;15.70;67.80;;;;;;6275302;22;20019;-82
2023/01/12 12:07:39;;;;;;;6.97;3.30;;;15.30;68.30;;;;;;6304901;22;20409;-82
2023/01/12 12:10:42;;;;;;;4.45;3.35;;;15.00;70.20;;;;;;6307112;22;19999;-82
2023/01/12 12:13:25;;;;;;;4.45;3.33;;;14.90;71.00;;;;;;6306751;22;20002;-82
2023/01/12 12:15:55;;;;;;;6.07;3.75;;;14.60;71.40;;;;;;6280276;22;20003;-82
2023/01/12 12:18:39;;;;;;;6.40;4.13;;;14.40;72.10;;;;;;6309541;22;20078;-82
2023/01/12 12:21:24;;;;;;;7.30;4.35;;;14.20;72.80;;;;;;6308470;22;20007;-81
2023/01/12 12:24:27;;;;;;;5.78;4.28;;;14.10;73.60;;;;;;6309215;22;19999;-82
2023/01/12 12:27:11;;;;;;;8.07;5.40;;;13.80;74.40;;;;;;6308564;22;19999;-82
2023/01/12 12:29:56;;;;;;;9.40;5.93;;;13.80;75.10;;;;;;6309128;22;19999;-82
2023/01/12 12:32:30;;;;;;;5.13;3.83;;;13.70;74.90;;;;;;6307636;22;20003;-82
2023/01/12 12:35:19;;;;;;;6.03;4.47;;;13.70;75.50;;;;;;6309099;22;20026;-82
2023/01/12 12:37:54;;;;;;;5.03;4.00;;;13.70;75.60;;;;;;6308390;22;20004;-82
2023/01/12 12:45:15;;;;;;;6.93;4.30;;;13.70;75.30;;;;;;6309267;22;20007;-82
2023/01/12 12:46:39;;;;;;;5.25;3.95;;;14.00;75.40;;;;;;6309072;22;20033;-82
2023/01/12 12:49:11;;;;;;;5.53;4.18;;;14.30;75.30;;;;;;6309171;22;19999;-82
2023/01/12 12:51:39;;;;;;;7.40;4.55;;;15.00;75.10;;;;;;6309348;22;20393;-81
2023/01/12 12:54:13;;;;;;;5.57;4.30;;;15.70;70.70;;;;;;6308794;22;19999;-81
2023/01/12 12:56:39;;;;;;;6.43;4.53;;;16.20;72.10;;;;;;6308619;22;20003;-81
2023/01/12 12:59:06;;;;;;;4.43;3.53;;;16.10;68.00;;;;;;6309238;22;19999;-82
2023/01/12 13:01:31;;;;;;;5.55;4.35;;;16.00;70.30;;;;;;6307718;22;20429;-81
2023/01/12 13:04:02;;;;;;;4.50;3.63;;;15.80;69.60;;;;;;6308073;22;20090;-81
2023/01/12 13:06:42;;;;;;;6.15;3.90;;;15.70;70.50;;;;;;6308394;22;20002;-81
2023/01/12 13:09:09;;;;;;;;;;;15.60;70.50;;;;;;6309553;22;20000;-81
2023/01/12 13:11:57;;;;;;;4.15;3.47;;;15.70;70.20;;;;;;6308270;22;19981;-82
2023/01/12 13:14:32;;;;;;;6.65;4.10;;;15.90;71.10;;;;;;6308252;22;20003;-81
2023/01/12 13:17:25;;;;;;;8.55;4.28;;;16.40;71.30;;;;;;6308512;22;20052;-81
2023/01/12 13:20:00;;;;;;;5.07;4.05;;;16.90;70.30;;;;;;6307986;22;20065;-82
2023/01/12 13:22:38;;;;;;;6.65;3.88;;;17.30;68.30;;;;;;6307670;22;20003;-81
2023/01/12 13:25:18;;;;;;;5.57;3.95;;;17.30;67.20;;;;;;6308607;22;20003;-82
2023/01/12 13:28:01;;;;;;;5.00;4.10;;;17.20;67.00;;;;;;6308167;22;20303;-82
2023/01/12 13:30:27;;;;;;;5.35;3.92;;;17.00;66.80;;;;;;6308255;22;19999;-82
2023/01/12 13:32:58;;;;;;;5.40;4.25;;;16.70;66.40;;;;;;6308789;22;20373;-82
2023/01/12 13:35:47;;;;;;;6.78;3.85;;;16.20;65.40;;;;;;6308075;22;19995;-81
2023/01/12 13:38:31;;;;;;;4.93;3.78;;;15.80;66.70;;;;;;6297541;22;20007;-82
2023/01/12 13:44:11;;;;;;;7.28;4.05;;;15.30;68.30;;;;;;6308711;22;20022;-81
2023/01/12 13:46:50;;;;;;;4.75;3.60;;;15.20;68.70;;;;;;6308667;22;20003;-82
2023/01/12 13:49:41;;;;;;;6.47;4.30;;;15.00;68.50;;;;;;6308610;22;20018;-81
2023/01/12 13:52:21;;;;;;;5.57;3.65;;;15.00;68.60;;;;;;6308364;22;20345;-81